KLUL

Details ICAO KLUL
Name HESLER NOBLE FLD
Region United States
Timezone America/Chicago (UTC-6.0)
Plans Departing 0
Arriving 1
Stats Elevation 238 ft / 73 m (AMSL)
Location 31.673046° -89.172775°
Runways 1
Magnetic Variation 1.604° W
Sunrise 2017-12-14 12:49:55 UTC / 2017-12-14 06:49:55 Local
Sunset 2017-12-14 22:55:51 UTC / 2017-12-14 16:55:51 Local
Advertisement - Login to hide

Runways

ID Width Length Bearing (true) Bearing (mag) Surface Threshold Offset Overrun Length
13 150 ft / 46 m 5,516 ft / 1,681 m 135.14° 136.74° Asphalt 0 ft / 0 m 0 ft / 0 m
31 150 ft / 46 m 5,516 ft / 1,681 m 315.14° 316.74° Asphalt 0 ft / 0 m 0 ft / 0 m

Map

Weather


0- 5 10 15 20 25 30 35+ Temperature / ° C

Clouds and Precipitation
Forecast for 2017-12-15 00:00 UTC. Updated an hour ago

Ground ~20,000 ft ~40,000 ft Winds

METAR

KLUL 150035Z AUTO 00000KT 10SM CLR 08/06 A3001 RMK AO2 T00840056

TAF

Not found

Frequencies

Recorded 119.27 MHz AWOS 3
Unicom 123.05 MHz CTAF/UNICOM
Warning: Do not use this data for real-world aviation or navigation. No guarantee of current accuracy is given.